Terminal Aerodrome Forecast
Issued by NWS Wilmington, OH

Home | Current Version | Previous Version | Text Only | Print | Product List | Glossary On
Versions: 1 2 3 4 5 6 7 8 9 10 11 12 13 14
000
FTUS41 KILN 042100 AAA
TAFCMH
TAF AMD
KCMH 042126Z 0421/0518 25009KT P6SM -SHRA SCT060 OVC100
     FM042300 24007KT P6SM BKN120
     FM050500 20004KT P6SM VCTS BKN070CB
     FM050900 20004KT P6SM -SHRA SCT040 OVC070
     FM051400 25010KT P6SM VCSH BKN050 OVC150=

USA.gov is the U.S. government's official web portal to all federal, state and local government web resources and services.